createdAt,value
2022-08-29T00:00:58.650Z,98915.00
2022-08-29T00:03:25.166Z,98907.59
2022-08-29T00:05:51.781Z,98902.84
2022-08-29T00:08:18.524Z,98896.31
2022-08-29T00:10:45.555Z,98900.00
2022-08-29T00:13:14.938Z,98896.31
2022-08-29T00:15:45.011Z,98894.72
2022-08-29T00:18:15.580Z,98888.81
2022-08-29T00:20:43.289Z,98889.03
2022-08-29T00:23:11.195Z,98884.41
2022-08-29T00:25:38.358Z,98891.78
2022-08-29T00:28:05.518Z,98895.56
2022-08-29T00:30:34.015Z,98902.34
2022-08-29T00:33:00.563Z,98905.72
2022-08-29T00:35:34.048Z,98906.13
2022-08-29T00:38:01.264Z,98902.09
2022-08-29T00:40:33.380Z,98906.31
2022-08-29T00:43:01.698Z,98902.41
2022-08-29T00:45:29.401Z,98904.63
2022-08-29T00:48:05.245Z,98906.94
2022-08-29T00:50:40.606Z,98911.97
2022-08-29T00:53:12.204Z,98906.28
2022-08-29T00:55:41.023Z,98910.91
2022-08-29T00:58:25.249Z,98912.59
2022-08-29T01:00:53.556Z,98913.69
2022-08-29T01:03:20.903Z,98917.00
2022-08-29T01:05:48.599Z,98915.19
2022-08-29T01:08:15.828Z,98914.03
2022-08-29T01:11:01.390Z,98914.16
2022-08-29T01:13:36.198Z,98912.44
2022-08-29T01:16:04.791Z,98920.28
2022-08-29T01:18:35.159Z,98915.63
2022-08-29T01:21:34.879Z,98918.78
2022-08-29T01:24:16.070Z,98917.56
2022-08-29T01:26:46.220Z,98923.19
2022-08-29T01:29:15.077Z,98922.97
2022-08-29T01:31:57.191Z,98927.50
2022-08-29T01:34:28.115Z,98936.16
2022-08-29T01:37:00.302Z,98930.94
2022-08-29T01:39:32.135Z,98925.78
2022-08-29T01:42:03.759Z,98928.09
2022-08-29T01:44:30.519Z,98924.59
2022-08-29T01:47:03.053Z,98920.19
2022-08-29T01:49:33.214Z,98933.38
2022-08-29T01:52:00.834Z,98931.56
2022-08-29T01:54:30.127Z,98936.81
2022-08-29T01:56:56.938Z,98940.06
2022-08-29T01:59:28.128Z,98929.72
2022-08-29T02:02:17.449Z,98935.47
2022-08-29T02:04:47.090Z,98939.09
2022-08-29T02:07:19.683Z,98933.97
2022-08-29T02:09:47.574Z,98931.97
2022-08-29T02:12:15.621Z,98943.34
2022-08-29T02:14:42.838Z,98940.06
2022-08-29T02:17:10.111Z,98938.09
2022-08-29T02:19:38.766Z,98944.38
2022-08-29T02:22:07.150Z,98938.94
2022-08-29T02:24:33.792Z,98941.50
2022-08-29T02:27:00.565Z,98940.38
2022-08-29T02:29:37.215Z,98937.91
2022-08-29T02:32:11.898Z,98942.94
2022-08-29T02:34:39.933Z,98951.84
2022-08-29T02:37:10.938Z,98948.38
2022-08-29T02:39:37.727Z,98947.06
2022-08-29T02:42:04.945Z,98940.66
2022-08-29T02:44:31.777Z,98946.28
2022-08-29T02:46:58.341Z,98942.53
2022-08-29T02:49:24.969Z,98945.38
2022-08-29T02:51:51.471Z,98941.31
2022-08-29T02:54:18.006Z,98942.75
2022-08-29T02:56:44.484Z,98942.28
2022-08-29T02:59:10.974Z,98933.91
2022-08-29T03:01:39.066Z,98944.41
2022-08-29T03:04:06.487Z,98941.03
2022-08-29T03:06:33.791Z,98937.72
2022-08-29T03:09:01.213Z,98941.38
2022-08-29T03:11:28.662Z,98934.25
2022-08-29T03:13:57.466Z,98933.22
2022-08-29T03:16:26.638Z,98939.53
2022-08-29T03:18:54.539Z,98937.44
2022-08-29T03:21:24.927Z,98937.34
2022-08-29T03:23:53.383Z,98935.72
2022-08-29T03:26:20.541Z,98929.06
2022-08-29T03:28:48.166Z,98937.53
2022-08-29T03:31:15.037Z,98935.63
2022-08-29T03:33:41.841Z,98935.91
2022-08-29T03:36:14.305Z,98938.06
2022-08-29T03:38:46.363Z,98942.22
2022-08-29T03:41:24.924Z,98935.38
2022-08-29T03:43:52.140Z,98936.50
2022-08-29T03:46:19.132Z,98941.38
2022-08-29T03:48:45.744Z,98942.47
2022-08-29T03:51:12.491Z,98937.56
2022-08-29T03:53:40.689Z,98935.78
2022-08-29T03:56:08.615Z,98935.50
2022-08-29T03:58:38.090Z,98933.66
2022-08-29T04:01:05.479Z,98939.41
2022-08-29T04:03:32.520Z,98932.53
2022-08-29T04:05:59.238Z,98928.16
2022-08-29T04:08:25.851Z,98930.50
2022-08-29T04:10:52.368Z,98925.81
2022-08-29T04:13:18.867Z,98930.78
2022-08-29T04:15:45.381Z,98928.63
2022-08-29T04:18:12.143Z,98929.00
2022-08-29T04:20:44.747Z,98933.22
2022-08-29T04:23:13.307Z,98941.03
2022-08-29T04:25:42.423Z,98945.25
2022-08-29T04:28:13.490Z,98945.38
2022-08-29T04:30:40.349Z,98939.25
2022-08-29T04:33:08.073Z,98944.00
2022-08-29T04:35:40.006Z,98939.88
2022-08-29T04:38:06.894Z,98944.22
2022-08-29T04:40:34.433Z,98944.72
2022-08-29T04:43:01.434Z,98949.97
2022-08-29T04:45:28.082Z,98952.03
2022-08-29T04:47:54.634Z,98954.31
2022-08-29T04:50:23.973Z,98956.38
2022-08-29T04:52:52.259Z,98949.41
2022-08-29T04:55:25.485Z,98948.22
2022-08-29T04:57:54.111Z,98953.25
2022-08-29T05:00:25.464Z,98948.22
2022-08-29T05:02:52.044Z,98949.22
2022-08-29T05:05:18.747Z,98947.16
2022-08-29T05:07:46.398Z,98946.50
2022-08-29T05:10:17.585Z,98946.84
2022-08-29T05:12:45.635Z,98944.22
2022-08-29T05:15:13.897Z,98944.53
2022-08-29T05:17:40.741Z,98943.84
2022-08-29T05:20:08.483Z,98945.19
2022-08-29T05:22:37.647Z,98949.44
2022-08-29T05:25:05.037Z,98945.75
2022-08-29T05:27:32.154Z,98952.50
2022-08-29T05:29:58.830Z,98954.97
2022-08-29T05:32:25.682Z,98952.16
2022-08-29T05:34:52.419Z,98949.50
2022-08-29T05:37:21.288Z,98956.28
2022-08-29T05:39:49.605Z,98948.38
2022-08-29T05:42:19.614Z,98951.13
2022-08-29T05:44:46.936Z,98950.06
2022-08-29T05:47:16.980Z,98948.84
2022-08-29T05:49:45.883Z,98960.06
2022-08-29T05:52:16.158Z,98962.22
2022-08-29T05:54:44.100Z,98967.84
2022-08-29T05:57:18.936Z,98965.09
2022-08-29T05:59:52.619Z,98966.78
2022-08-29T06:02:21.418Z,98965.28
2022-08-29T06:04:49.208Z,98962.66
2022-08-29T06:07:15.952Z,98964.06
2022-08-29T06:09:44.058Z,98967.19
2022-08-29T06:12:14.003Z,98971.50
2022-08-29T06:14:41.630Z,98968.50
2022-08-29T06:17:16.859Z,98962.28
2022-08-29T06:19:43.382Z,98977.34
2022-08-29T06:22:10.667Z,98987.13
2022-08-29T06:24:39.423Z,98979.13
2022-08-29T06:27:06.025Z,98986.56
2022-08-29T06:29:32.770Z,98990.69
2022-08-29T06:32:09.377Z,98977.94
2022-08-29T06:34:35.934Z,98982.53
2022-08-29T06:37:02.435Z,98981.38
2022-08-29T06:39:29.041Z,98985.50
2022-08-29T06:41:55.524Z,98983.00
2022-08-29T06:44:22.106Z,98980.63
2022-08-29T06:46:49.935Z,98978.34
2022-08-29T06:49:19.772Z,98982.34
2022-08-29T06:51:54.170Z,98978.34
2022-08-29T06:54:28.244Z,98992.00
2022-08-29T06:56:56.567Z,98989.16
2022-08-29T06:59:23.227Z,98987.09
2022-08-29T07:01:50.264Z,98977.78
2022-08-29T07:04:16.839Z,98983.25
2022-08-29T07:06:47.794Z,98982.69
2022-08-29T07:09:14.390Z,98976.84
2022-08-29T07:11:42.702Z,98985.03
2022-08-29T07:14:10.258Z,98987.28
2022-08-29T07:16:37.659Z,98992.09
2022-08-29T07:19:06.050Z,98987.31
2022-08-29T07:21:33.516Z,98981.97
2022-08-29T07:24:00.230Z,98986.72
2022-08-29T07:26:36.053Z,98983.00
2022-08-29T07:29:10.778Z,98977.59
2022-08-29T07:31:39.114Z,98977.53
2022-08-29T07:34:06.877Z,98983.69
2022-08-29T07:36:34.797Z,98986.91
2022-08-29T07:39:05.450Z,98991.28
2022-08-29T07:41:32.011Z,98992.34
2022-08-29T07:43:58.536Z,98987.97
2022-08-29T07:46:26.851Z,98994.25
2022-08-29T07:48:53.675Z,98989.88
2022-08-29T07:51:23.522Z,98998.56
2022-08-29T07:53:52.041Z,98987.44
2022-08-29T07:56:37.561Z,98988.78
2022-08-29T07:59:04.510Z,98989.50
2022-08-29T08:01:31.137Z,98997.47
2022-08-29T08:03:58.373Z,99000.00
2022-08-29T08:06:27.309Z,98997.81
2022-08-29T08:08:55.411Z,98996.03
2022-08-29T08:11:25.540Z,98991.66
2022-08-29T08:13:54.902Z,98986.13
2022-08-29T08:16:24.979Z,98993.97
2022-08-29T08:18:52.806Z,98995.06
2022-08-29T08:21:19.726Z,98992.53
2022-08-29T08:23:46.598Z,98998.19
2022-08-29T08:26:14.398Z,98986.94
2022-08-29T08:28:43.536Z,98981.84
2022-08-29T08:31:14.317Z,98981.94
2022-08-29T08:33:42.411Z,98977.81
2022-08-29T08:36:18.331Z,98979.81
2022-08-29T08:38:45.256Z,98983.75
2022-08-29T08:41:34.016Z,98985.78
2022-08-29T08:44:09.023Z,98980.00
2022-08-29T08:46:44.625Z,98984.59
2022-08-29T08:49:34.959Z,98982.75
2022-08-29T08:52:10.425Z,98985.59
2022-08-29T08:54:53.222Z,98979.44
2022-08-29T08:57:22.114Z,98979.09
2022-08-29T08:59:59.069Z,98982.09
2022-08-29T09:03:19.285Z,98983.97
2022-08-29T09:06:08.309Z,98984.78
2022-08-29T09:09:14.391Z,98983.53
2022-08-29T09:11:59.997Z,98982.03
2022-08-29T09:14:57.006Z,98973.81
2022-08-29T09:17:41.206Z,98978.19
2022-08-29T09:20:15.199Z,98980.88
2022-08-29T09:22:52.562Z,98978.47
2022-08-29T09:25:19.110Z,98969.63
2022-08-29T09:27:45.614Z,98974.81
2022-08-29T09:30:24.367Z,98972.16
2022-08-29T09:33:15.027Z,98971.31
2022-08-29T09:35:52.466Z,98973.44
2022-08-29T09:38:18.923Z,98972.44
2022-08-29T09:41:07.931Z,98977.22
2022-08-29T09:43:40.568Z,98976.09
2022-08-29T09:46:26.265Z,98973.25
2022-08-29T09:49:17.607Z,98976.63
2022-08-29T09:51:49.252Z,98958.94
2022-08-29T09:54:27.296Z,98970.72
2022-08-29T09:57:19.926Z,98965.00
2022-08-29T10:00:12.052Z,98958.22
2022-08-29T10:02:56.064Z,98956.13
2022-08-29T10:05:44.570Z,98952.69
2022-08-29T10:08:35.209Z,98958.53
2022-08-29T10:11:08.911Z,98960.69
2022-08-29T10:13:52.099Z,98964.72
2022-08-29T10:16:38.406Z,98963.09
2022-08-29T10:19:18.100Z,98966.94
2022-08-29T10:22:14.071Z,98967.56
2022-08-29T10:24:54.264Z,98967.66
2022-08-29T10:27:51.693Z,98970.19
2022-08-29T10:30:26.668Z,98959.28
2022-08-29T10:33:17.191Z,98957.28
2022-08-29T10:35:57.766Z,98954.78
2022-08-29T10:38:46.803Z,98948.03
2022-08-29T10:41:13.238Z,98956.28
2022-08-29T10:43:49.577Z,98945.97
2022-08-29T10:46:48.360Z,98942.84
2022-08-29T10:49:52.049Z,98946.34
2022-08-29T10:52:33.935Z,98936.09
2022-08-29T10:55:15.130Z,98947.28
2022-08-29T10:58:03.272Z,98939.00
2022-08-29T11:00:46.702Z,98942.94
2022-08-29T11:03:40.223Z,98937.00
2022-08-29T11:06:18.266Z,98941.41
2022-08-29T11:09:08.622Z,98921.69
2022-08-29T11:11:41.165Z,98917.53
2022-08-29T11:14:27.489Z,98908.00
2022-08-29T11:16:56.532Z,98911.38
2022-08-29T11:19:44.234Z,98902.88
2022-08-29T11:22:35.978Z,98904.06
2022-08-29T11:25:20.107Z,98905.59
2022-08-29T11:28:07.106Z,98889.41
2022-08-29T11:30:52.159Z,98891.59
2022-08-29T11:34:01.542Z,98886.75
2022-08-29T11:36:27.978Z,98884.72
2022-08-29T11:39:18.818Z,98887.06
2022-08-29T11:41:58.479Z,98883.38
2022-08-29T11:44:37.771Z,98878.38
2022-08-29T11:48:16.194Z,98882.38
2022-08-29T11:50:43.678Z,98879.34
2022-08-29T11:53:34.252Z,98874.81
2022-08-29T11:56:12.827Z,98882.66
2022-08-29T11:58:40.286Z,98882.47
2022-08-29T12:01:20.413Z,98876.94
2022-08-29T12:03:47.071Z,98872.47
2022-08-29T12:06:35.078Z,98873.34
2022-08-29T12:09:14.393Z,98859.78
2022-08-29T12:11:59.175Z,98860.13
2022-08-29T12:14:48.867Z,98860.25
2022-08-29T12:17:19.016Z,98861.19
2022-08-29T12:19:50.041Z,98859.28
2022-08-29T12:22:55.891Z,98854.16
2022-08-29T12:25:28.491Z,98850.59
2022-08-29T12:28:18.427Z,98850.94
2022-08-29T12:30:52.756Z,98852.94
2022-08-29T12:33:29.621Z,98844.84
2022-08-29T12:36:20.303Z,98833.47
2022-08-29T12:39:03.898Z,98840.78
2022-08-29T12:41:46.983Z,98842.50
2022-08-29T12:44:18.395Z,98840.56
2022-08-29T12:46:51.330Z,98828.31
2022-08-29T12:49:50.878Z,98823.63
2022-08-29T12:52:31.642Z,98827.16
2022-08-29T12:55:39.698Z,98825.78
2022-08-29T12:58:14.569Z,98819.50
2022-08-29T13:00:41.991Z,98818.50
2022-08-29T13:03:21.197Z,98817.47
2022-08-29T13:05:48.483Z,98816.81
2022-08-29T13:08:28.287Z,98813.78
2022-08-29T13:10:59.505Z,98815.94
2022-08-29T13:13:28.348Z,98817.88
2022-08-29T13:16:01.809Z,98807.81
2022-08-29T13:18:31.082Z,98818.84
2022-08-29T13:21:28.449Z,98810.13
2022-08-29T13:24:02.094Z,98807.59
2022-08-29T13:26:32.382Z,98807.53
2022-08-29T13:29:23.407Z,98804.75
2022-08-29T13:32:23.585Z,98808.81
2022-08-29T13:35:31.490Z,98806.22
2022-08-29T13:38:25.739Z,98793.19
2022-08-29T13:40:58.591Z,98802.22
2022-08-29T13:43:43.095Z,98803.06
2022-08-29T13:46:14.881Z,98794.53
2022-08-29T13:48:43.541Z,98793.22
2022-08-29T13:51:11.116Z,98794.84
2022-08-29T13:53:37.749Z,98796.16
2022-08-29T13:56:20.899Z,98797.75
2022-08-29T13:58:48.093Z,98796.50
2022-08-29T14:01:31.034Z,98793.53
2022-08-29T14:04:15.366Z,98785.66
2022-08-29T14:06:48.279Z,98788.47
2022-08-29T14:09:22.439Z,98787.44
2022-08-29T14:11:48.907Z,98776.59
2022-08-29T14:14:15.647Z,98781.72
2022-08-29T14:16:42.246Z,98785.16
2022-08-29T14:19:08.748Z,98782.47
2022-08-29T14:21:35.308Z,98776.72
2022-08-29T14:24:01.914Z,98770.56
2022-08-29T14:26:28.509Z,98772.63
2022-08-29T14:28:55.107Z,98783.66
2022-08-29T14:31:21.697Z,98775.94
2022-08-29T14:33:51.677Z,98784.03
2022-08-29T14:36:18.712Z,98782.00
2022-08-29T14:38:45.356Z,98781.91
2022-08-29T14:41:11.864Z,98792.38
2022-08-29T14:43:40.059Z,98791.25
2022-08-29T14:46:07.462Z,98779.31
2022-08-29T14:48:34.446Z,98783.84
2022-08-29T14:51:01.232Z,98786.34
2022-08-29T14:53:27.746Z,98784.59
2022-08-29T14:55:56.201Z,98784.69
2022-08-29T14:58:23.093Z,98778.28
2022-08-29T15:00:49.643Z,98783.31
2022-08-29T15:03:19.272Z,98784.63
2022-08-29T15:05:47.315Z,98778.22
2022-08-29T15:08:17.907Z,98766.81
2022-08-29T15:10:44.904Z,98773.56
2022-08-29T15:13:11.572Z,98771.78
2022-08-29T15:15:38.166Z,98774.47
2022-08-29T15:18:07.806Z,98760.19
2022-08-29T15:20:37.170Z,98756.19
2022-08-29T15:23:04.250Z,98762.56
2022-08-29T15:25:30.983Z,98760.81
2022-08-29T15:27:57.518Z,98752.59
2022-08-29T15:30:25.734Z,98752.41
2022-08-29T15:32:52.867Z,98753.53
2022-08-29T15:35:19.527Z,98744.59
2022-08-29T15:37:46.066Z,98750.16
2022-08-29T15:40:13.785Z,98742.31
2022-08-29T15:42:41.155Z,98748.97
2022-08-29T15:45:10.514Z,98749.97
2022-08-29T15:47:39.632Z,98740.25
2022-08-29T15:50:08.464Z,98741.91
2022-08-29T15:52:35.993Z,98743.38
2022-08-29T15:55:04.286Z,98734.69
2022-08-29T15:57:30.834Z,98731.69
2022-08-29T15:59:58.669Z,98733.09
2022-08-29T16:02:27.487Z,98735.97
2022-08-29T16:04:57.171Z,98729.66
2022-08-29T16:07:28.959Z,98728.81
2022-08-29T16:09:57.619Z,98726.13
2022-08-29T16:12:24.145Z,98719.94
2022-08-29T16:14:59.629Z,98719.09
2022-08-29T16:17:29.614Z,98720.03
2022-08-29T16:19:56.125Z,98720.97
2022-08-29T16:22:22.703Z,98725.13
2022-08-29T16:24:49.343Z,98727.47
2022-08-29T16:27:16.478Z,98724.22
2022-08-29T16:29:43.269Z,98724.69
2022-08-29T16:32:09.764Z,98723.88
2022-08-29T16:34:36.314Z,98723.66
2022-08-29T16:37:03.162Z,98730.34
2022-08-29T16:39:29.901Z,98725.53
2022-08-29T16:41:56.717Z,98729.38
2022-08-29T16:44:23.978Z,98724.63
2022-08-29T16:46:51.511Z,98724.84
2022-08-29T16:49:18.292Z,98724.00
2022-08-29T16:51:44.842Z,98734.63
2022-08-29T16:54:12.307Z,98725.34
2022-08-29T16:56:39.646Z,98728.34
2022-08-29T16:59:07.231Z,98726.81
2022-08-29T17:01:37.669Z,98729.03
2022-08-29T17:04:09.862Z,98727.72
2022-08-29T17:06:36.879Z,98726.91
2022-08-29T17:09:06.509Z,98729.69
2022-08-29T17:11:36.799Z,98734.06
2022-08-29T17:14:04.132Z,98722.84
2022-08-29T17:16:31.358Z,98727.41
2022-08-29T17:18:58.367Z,98726.31
2022-08-29T17:21:26.591Z,98726.19
2022-08-29T17:23:55.235Z,98720.34
2022-08-29T17:26:23.253Z,98724.78
2022-08-29T17:28:50.774Z,98729.75
2022-08-29T17:31:18.937Z,98727.59
2022-08-29T17:33:46.556Z,98719.03
2022-08-29T17:36:14.046Z,98723.41
2022-08-29T17:38:46.788Z,98723.78
2022-08-29T17:41:20.585Z,98727.03
2022-08-29T17:43:49.279Z,98732.09
2022-08-29T17:46:18.395Z,98734.31
2022-08-29T17:48:45.846Z,98739.19
2022-08-29T17:51:12.637Z,98739.66
2022-08-29T17:53:40.733Z,98738.53
2022-08-29T17:56:29.253Z,98747.59
2022-08-29T17:58:57.489Z,98743.47
2022-08-29T18:01:24.316Z,98746.00
2022-08-29T18:03:51.134Z,98745.22
2022-08-29T18:06:18.691Z,98744.38
2022-08-29T18:08:47.969Z,98754.75
2022-08-29T18:11:17.171Z,98750.03
2022-08-29T18:13:45.906Z,98753.72
2022-08-29T18:16:14.551Z,98746.72
2022-08-29T18:18:42.136Z,98753.72
2022-08-29T18:21:09.152Z,98755.72
2022-08-29T18:23:37.195Z,98755.00
2022-08-29T18:26:05.230Z,98755.84
2022-08-29T18:28:32.745Z,98755.63
2022-08-29T18:30:59.406Z,98760.16
2022-08-29T18:33:38.717Z,98756.13
2022-08-29T18:36:15.177Z,98767.28
2022-08-29T18:38:41.930Z,98760.06
2022-08-29T18:41:08.640Z,98759.56
2022-08-29T18:43:35.654Z,98769.69
2022-08-29T18:46:03.955Z,98758.81
2022-08-29T18:48:31.564Z,98760.13
2022-08-29T18:50:59.869Z,98769.31
2022-08-29T18:53:31.436Z,98770.41
2022-08-29T18:56:00.431Z,98769.50
2022-08-29T18:58:31.572Z,98773.84
2022-08-29T19:01:08.403Z,98770.06
2022-08-29T19:03:34.937Z,98771.31
2022-08-29T19:06:01.448Z,98770.72
2022-08-29T19:08:28.012Z,98781.72
2022-08-29T19:10:56.086Z,98782.56
2022-08-29T19:13:25.411Z,98791.03
2022-08-29T19:15:56.624Z,98791.47
2022-08-29T19:18:23.474Z,98790.69
2022-08-29T19:21:02.319Z,98794.13
2022-08-29T19:23:32.645Z,98798.88
2022-08-29T19:26:00.882Z,98790.09
2022-08-29T19:28:27.775Z,98793.34
2022-08-29T19:30:55.347Z,98792.56
2022-08-29T19:33:22.602Z,98801.75
2022-08-29T19:35:51.312Z,98800.50
2022-08-29T19:38:20.755Z,98804.38
2022-08-29T19:40:57.208Z,98803.75
2022-08-29T19:43:27.419Z,98794.97
2022-08-29T19:45:55.963Z,98805.41
2022-08-29T19:48:23.239Z,98807.53
2022-08-29T19:50:54.416Z,98808.69
2022-08-29T19:53:26.576Z,98802.56
2022-08-29T19:55:55.498Z,98806.81
2022-08-29T19:58:22.828Z,98808.38
2022-08-29T20:00:57.820Z,98817.78
2022-08-29T20:03:24.553Z,98816.78
2022-08-29T20:05:51.597Z,98811.19
2022-08-29T20:08:18.178Z,98809.06
2022-08-29T20:10:50.174Z,98808.66
2022-08-29T20:13:17.285Z,98816.91
2022-08-29T20:15:44.275Z,98814.72
2022-08-29T20:18:10.831Z,98808.72
2022-08-29T20:20:39.814Z,98808.44
2022-08-29T20:23:07.759Z,98806.22
2022-08-29T20:25:35.337Z,98803.09
2022-08-29T20:28:02.655Z,98802.25
2022-08-29T20:30:33.163Z,98808.44
2022-08-29T20:32:59.947Z,98807.59
2022-08-29T20:35:45.848Z,98810.69
2022-08-29T20:38:12.717Z,98811.22
2022-08-29T20:40:46.609Z,98811.22
2022-08-29T20:43:15.313Z,98816.81
2022-08-29T20:45:42.337Z,98818.75
2022-08-29T20:48:10.454Z,98823.09
2022-08-29T20:50:37.037Z,98822.81
2022-08-29T20:53:05.518Z,98827.84
2022-08-29T20:55:32.058Z,98826.69
2022-08-29T20:57:58.556Z,98822.91
2022-08-29T21:00:25.154Z,98829.88
2022-08-29T21:03:10.127Z,98831.97
2022-08-29T21:05:44.710Z,98828.84
2022-08-29T21:08:18.146Z,98836.34
2022-08-29T21:10:46.822Z,98842.06
2022-08-29T21:13:14.748Z,98842.22
2022-08-29T21:15:43.035Z,98836.19
2022-08-29T21:18:12.333Z,98839.81
2022-08-29T21:20:53.489Z,98836.84
2022-08-29T21:23:22.886Z,98839.25
2022-08-29T21:25:59.498Z,98836.72
2022-08-29T21:28:28.503Z,98845.66
2022-08-29T21:30:55.615Z,98842.72
2022-08-29T21:33:23.086Z,98843.75
2022-08-29T21:35:49.765Z,98842.25
2022-08-29T21:38:16.933Z,98845.22
2022-08-29T21:40:50.856Z,98843.78
2022-08-29T21:43:19.577Z,98835.50
2022-08-29T21:45:47.393Z,98833.41
2022-08-29T21:48:14.086Z,98835.41
2022-08-29T21:50:40.632Z,98831.03
2022-08-29T21:53:07.360Z,98832.00
2022-08-29T21:55:33.889Z,98838.66
2022-08-29T21:58:01.240Z,98839.22
2022-08-29T22:00:36.378Z,98832.25
2022-08-29T22:03:07.101Z,98832.09
2022-08-29T22:05:33.758Z,98830.94
2022-08-29T22:08:03.081Z,98830.03
2022-08-29T22:10:35.191Z,98827.19
2022-08-29T22:13:03.375Z,98843.69
2022-08-29T22:15:48.722Z,98843.38
2022-08-29T22:18:16.087Z,98846.16
2022-08-29T22:20:46.465Z,98842.16
2022-08-29T22:23:18.867Z,98847.00
2022-08-29T22:25:47.197Z,98856.59
2022-08-29T22:28:13.742Z,98857.75
2022-08-29T22:30:40.274Z,98862.59
2022-08-29T22:33:18.013Z,98853.19
2022-08-29T22:35:44.683Z,98850.69
2022-08-29T22:38:11.246Z,98857.03
2022-08-29T22:40:38.667Z,98854.38
2022-08-29T22:43:05.223Z,98854.75
2022-08-29T22:45:32.265Z,98853.47
2022-08-29T22:47:58.805Z,98852.91
2022-08-29T22:50:26.144Z,98852.06
2022-08-29T22:52:59.132Z,98847.25
2022-08-29T22:57:51.682Z,98856.22
2022-08-29T23:00:24.157Z,98849.06
2022-08-29T23:02:52.155Z,98847.97
2022-08-29T23:05:21.055Z,98854.13
2022-08-29T23:07:48.164Z,98853.75
2022-08-29T23:10:15.444Z,98852.50
2022-08-29T23:12:42.086Z,98851.78
2022-08-29T23:15:15.307Z,98857.22
2022-08-29T23:17:41.944Z,98853.41
2022-08-29T23:20:12.213Z,98859.31
2022-08-29T23:22:39.490Z,98858.13
2022-08-29T23:25:11.961Z,98862.16
2022-08-29T23:27:39.148Z,98858.13
2022-08-29T23:30:12.326Z,98853.41
2022-08-29T23:32:38.947Z,98844.28
2022-08-29T23:35:07.529Z,98850.38
2022-08-29T23:37:34.626Z,98857.34
2022-08-29T23:40:02.220Z,98859.19
2022-08-29T23:42:31.775Z,98866.16
2022-08-29T23:44:58.288Z,98856.53
2022-08-29T23:47:24.916Z,98858.94
2022-08-29T23:49:51.452Z,98851.22
2022-08-29T23:52:18.000Z,98852.69
2022-08-29T23:54:44.509Z,98845.38
2022-08-29T23:57:11.127Z,98843.63
2022-08-29T23:59:56.567Z,98837.84
